sensor_id;sensor_type;location;lat;lon;timestamp;temperature;humidity
81366;DHT22;70822;51.990;22.766;2024-01-15T00:10:19;0.90;86.70
81366;DHT22;70822;51.990;22.766;2024-01-15T00:25:24;0.80;86.20
81366;DHT22;70822;51.990;22.766;2024-01-15T00:40:28;1.00;86.00
81366;DHT22;70822;51.990;22.766;2024-01-15T00:55:33;0.80;86.10
81366;DHT22;70822;51.990;22.766;2024-01-15T01:10:38;0.80;86.20
81366;DHT22;70822;51.990;22.766;2024-01-15T01:25:43;0.70;86.40
81366;DHT22;70822;51.990;22.766;2024-01-15T01:40:48;0.80;86.10
81366;DHT22;70822;51.990;22.766;2024-01-15T01:55:53;0.80;86.10
81366;DHT22;70822;51.990;22.766;2024-01-15T02:10:58;0.60;86.00
81366;DHT22;70822;51.990;22.766;2024-01-15T02:26:04;0.40;86.10
81366;DHT22;70822;51.990;22.766;2024-01-15T02:41:09;0.50;86.20
81366;DHT22;70822;51.990;22.766;2024-01-15T02:56:14;0.50;86.20
81366;DHT22;70822;51.990;22.766;2024-01-15T03:11:19;0.40;86.20
81366;DHT22;70822;51.990;22.766;2024-01-15T03:26:24;0.40;86.10
81366;DHT22;70822;51.990;22.766;2024-01-15T03:41:28;0.50;86.60
81366;DHT22;70822;51.990;22.766;2024-01-15T03:56:33;0.30;86.50
81366;DHT22;70822;51.990;22.766;2024-01-15T04:11:39;0.40;87.10
81366;DHT22;70822;51.990;22.766;2024-01-15T04:26:45;0.40;87.10
81366;DHT22;70822;51.990;22.766;2024-01-15T04:41:50;0.20;86.80
81366;DHT22;70822;51.990;22.766;2024-01-15T04:56:54;0.20;86.90
81366;DHT22;70822;51.990;22.766;2024-01-15T05:12:00;0.10;86.50
81366;DHT22;70822;51.990;22.766;2024-01-15T05:27:05;0.10;86.80
81366;DHT22;70822;51.990;22.766;2024-01-15T05:42:10;0.00;87.20
81366;DHT22;70822;51.990;22.766;2024-01-15T05:57:15;0.10;87.20
81366;DHT22;70822;51.990;22.766;2024-01-15T06:12:19;0.10;86.80
81366;DHT22;70822;51.990;22.766;2024-01-15T06:27:24;0.10;86.30
81366;DHT22;70822;51.990;22.766;2024-01-15T06:42:29;0.20;86.00
81366;DHT22;70822;51.990;22.766;2024-01-15T06:57:34;0.00;86.70
81366;DHT22;70822;51.990;22.766;2024-01-15T07:12:39;0.00;87.40
81366;DHT22;70822;51.990;22.766;2024-01-15T07:27:44;0.00;87.90
81366;DHT22;70822;51.990;22.766;2024-01-15T07:42:49;0.20;87.70
81366;DHT22;70822;51.990;22.766;2024-01-15T07:57:54;0.40;88.10
81366;DHT22;70822;51.990;22.766;2024-01-15T08:13:06;0.20;88.00
81366;DHT22;70822;51.990;22.766;2024-01-15T08:28:12;0.40;87.80
81366;DHT22;70822;51.990;22.766;2024-01-15T08:43:17;0.70;87.10
81366;DHT22;70822;51.990;22.766;2024-01-15T08:58:23;0.70;86.40
81366;DHT22;70822;51.990;22.766;2024-01-15T09:13:28;0.80;86.00
81366;DHT22;70822;51.990;22.766;2024-01-15T09:28:32;0.80;85.40
81366;DHT22;70822;51.990;22.766;2024-01-15T09:43:37;0.80;85.50
81366;DHT22;70822;51.990;22.766;2024-01-15T09:58:44;1.10;85.00
81366;DHT22;70822;51.990;22.766;2024-01-15T10:13:49;1.20;84.60
81366;DHT22;70822;51.990;22.766;2024-01-15T10:29:00;1.10;84.30
81366;DHT22;70822;51.990;22.766;2024-01-15T10:44:04;1.10;84.10
81366;DHT22;70822;51.990;22.766;2024-01-15T10:59:10;1.40;83.60
81366;DHT22;70822;51.990;22.766;2024-01-15T11:14:38;1.50;82.60
81366;DHT22;70822;51.990;22.766;2024-01-15T11:29:42;2.00;79.90
81366;DHT22;70822;51.990;22.766;2024-01-15T11:44:49;2.10;77.60
81366;DHT22;70822;51.990;22.766;2024-01-15T11:59:55;2.50;77.20
81366;DHT22;70822;51.990;22.766;2024-01-15T12:15:06;2.20;76.30
81366;DHT22;70822;51.990;22.766;2024-01-15T12:30:13;1.70;78.20
81366;DHT22;70822;51.990;22.766;2024-01-15T12:45:18;1.80;78.20
81366;DHT22;70822;51.990;22.766;2024-01-15T13:00:23;1.50;78.00
81366;DHT22;70822;51.990;22.766;2024-01-15T13:15:30;1.50;78.20
81366;DHT22;70822;51.990;22.766;2024-01-15T13:30:36;1.50;77.90
81366;DHT22;70822;51.990;22.766;2024-01-15T13:45:42;1.40;78.40
81366;DHT22;70822;51.990;22.766;2024-01-15T14:00:47;1.20;80.80
81366;DHT22;70822;51.990;22.766;2024-01-15T14:15:53;0.90;81.20
81366;DHT22;70822;51.990;22.766;2024-01-15T14:30:57;0.50;81.40
81366;DHT22;70822;51.990;22.766;2024-01-15T14:46:04;0.70;80.80
81366;DHT22;70822;51.990;22.766;2024-01-15T15:01:10;0.40;82.70
81366;DHT22;70822;51.990;22.766;2024-01-15T15:16:15;0.50;83.00
81366;DHT22;70822;51.990;22.766;2024-01-15T15:31:20;0.00;82.00
81366;DHT22;70822;51.990;22.766;2024-01-15T15:46:25;0.10;82.40
81366;DHT22;70822;51.990;22.766;2024-01-15T16:01:29;0.30;82.30
81366;DHT22;70822;51.990;22.766;2024-01-15T16:16:34;0.20;81.30
81366;DHT22;70822;51.990;22.766;2024-01-15T16:31:39;0.30;79.70
81366;DHT22;70822;51.990;22.766;2024-01-15T16:46:44;0.40;79.70
81366;DHT22;70822;51.990;22.766;2024-01-15T17:01:50;0.00;79.20
81366;DHT22;70822;51.990;22.766;2024-01-15T17:16:55;-0.10;78.80
81366;DHT22;70822;51.990;22.766;2024-01-15T17:32:00;-0.20;78.70
81366;DHT22;70822;51.990;22.766;2024-01-15T17:47:05;0.10;78.50
81366;DHT22;70822;51.990;22.766;2024-01-15T18:02:10;0.10;78.20
81366;DHT22;70822;51.990;22.766;2024-01-15T18:17:15;0.20;77.40
81366;DHT22;70822;51.990;22.766;2024-01-15T18:32:21;0.30;77.40
81366;DHT22;70822;51.990;22.766;2024-01-15T18:47:26;0.40;77.00
81366;DHT22;70822;51.990;22.766;2024-01-15T19:02:31;0.50;76.20
81366;DHT22;70822;51.990;22.766;2024-01-15T19:17:37;0.20;76.70
81366;DHT22;70822;51.990;22.766;2024-01-15T19:32:42;0.10;77.30
81366;DHT22;70822;51.990;22.766;2024-01-15T19:47:47;0.30;77.50
81366;DHT22;70822;51.990;22.766;2024-01-15T20:02:52;0.20;77.90
81366;DHT22;70822;51.990;22.766;2024-01-15T20:17:56;0.20;78.50
81366;DHT22;70822;51.990;22.766;2024-01-15T20:33:02;0.10;79.20
81366;DHT22;70822;51.990;22.766;2024-01-15T20:48:07;0.30;79.20
81366;DHT22;70822;51.990;22.766;2024-01-15T21:03:12;0.00;81.80
81366;DHT22;70822;51.990;22.766;2024-01-15T21:18:16;-1.00;84.20
81366;DHT22;70822;51.990;22.766;2024-01-15T21:33:21;-0.90;82.70
81366;DHT22;70822;51.990;22.766;2024-01-15T21:48:26;-0.70;79.90
81366;DHT22;70822;51.990;22.766;2024-01-15T22:03:31;-1.10;78.40
81366;DHT22;70822;51.990;22.766;2024-01-15T22:18:36;-0.80;77.20
81366;DHT22;70822;51.990;22.766;2024-01-15T22:33:42;-0.60;75.40
81366;DHT22;70822;51.990;22.766;2024-01-15T22:48:47;-0.60;73.60
81366;DHT22;70822;51.990;22.766;2024-01-15T23:03:52;-0.70;73.40
81366;DHT22;70822;51.990;22.766;2024-01-15T23:18:57;-0.60;74.20
81366;DHT22;70822;51.990;22.766;2024-01-15T23:34:02;-0.60;73.60
81366;DHT22;70822;51.990;22.766;2024-01-15T23:49:07;-0.70;73.50
